Time;durP1;ratioP1;P1;durP2;ratioP2;P2;SDS_P1;SDS_P2;PMS_P1;PMS_P2;Temp;Humidity;BMP_temperature;BMP_pressure;BME280_temperature;BME280_humidity;BME280_pressure;Samples;Min_cycle;Max_cycle;Signal;HPM_P1;HPM_P2
2021/09/14 00:00:16;;;;;;;4.68;1.10;;;;;;;14.71;100.00;101216.38;5008028;28;20038;-65
2021/09/14 00:02:42;;;;;;;3.20;0.98;;;;;;;14.75;100.00;101222.63;5005669;28;20779;-66
2021/09/14 00:05:08;;;;;;;1.88;0.90;;;;;;;14.64;100.00;101227.09;5011336;28;20049;-66
2021/09/14 00:07:33;;;;;;;2.17;1.13;;;;;;;14.52;100.00;101233.53;4999493;28;20027;-66
2021/09/14 00:10:00;;;;;;;1.40;1.13;;;;;;;14.65;100.00;101229.47;5008420;28;20642;-66
2021/09/14 00:12:25;;;;;;;1.83;0.95;;;;;;;14.56;100.00;101230.84;5010502;28;20030;-66
2021/09/14 00:14:51;;;;;;;2.08;0.88;;;;;;;14.62;100.00;101229.41;5015089;28;20195;-65
2021/09/14 00:17:16;;;;;;;3.90;0.70;;;;;;;14.52;100.00;101230.06;5029519;28;20037;-66
2021/09/14 00:19:42;;;;;;;1.15;0.70;;;;;;;14.62;100.00;101229.41;5016043;28;20395;-66
2021/09/14 00:22:07;;;;;;;1.67;0.77;;;;;;;14.65;100.00;101223.25;5016343;28;20491;-66
2021/09/14 00:24:32;;;;;;;2.92;0.93;;;;;;;14.69;100.00;101224.09;5026563;28;20056;-66
2021/09/14 00:26:58;;;;;;;2.00;0.73;;;;;;;14.67;100.00;101224.47;5012300;28;20091;-66
2021/09/14 00:29:24;;;;;;;2.80;1.20;;;;;;;14.70;100.00;101217.50;5006141;28;20080;-65
2021/09/14 00:31:49;;;;;;;0.75;0.60;;;;;;;14.73;100.00;101228.38;5008091;28;20120;-66
2021/09/14 00:34:14;;;;;;;1.80;0.75;;;;;;;14.68;100.00;101217.09;5006028;28;20105;-67
2021/09/14 00:36:40;;;;;;;0.70;0.43;;;;;;;14.63;100.00;101223.63;4990287;28;20030;-65
2021/09/14 00:39:05;;;;;;;1.45;0.88;;;;;;;14.50;100.00;101229.63;5011495;28;20042;-66
2021/09/14 00:41:31;;;;;;;1.60;1.00;;;;;;;14.56;100.00;101222.72;5010175;28;20032;-66
2021/09/14 00:44:01;;;;;;;1.75;1.00;;;;;;;14.50;100.00;101216.84;5006228;28;20042;-66
2021/09/14 00:46:27;;;;;;;2.57;0.80;;;;;;;14.46;100.00;101214.09;5002044;28;20367;-66
2021/09/14 00:48:53;;;;;;;1.85;0.80;;;;;;;14.53;100.00;101215.34;5017063;28;20660;-66
2021/09/14 00:51:18;;;;;;;1.25;0.75;;;;;;;14.60;100.00;101210.78;5015159;28;20017;-66
2021/09/14 00:53:47;;;;;;;2.65;0.80;;;;;;;14.67;100.00;101212.81;5009888;28;20417;-66
2021/09/14 00:56:14;;;;;;;1.05;0.73;;;;;;;14.66;100.00;101213.97;5013127;28;20494;-66
2021/09/14 00:58:40;;;;;;;2.67;0.68;;;;;;;14.67;100.00;101218.25;5007059;28;20045;-66
2021/09/14 01:01:06;;;;;;;0.80;0.70;;;;;;;14.75;100.00;101228.78;4996901;28;20389;-66
2021/09/14 01:03:32;;;;;;;0.77;0.70;;;;;;;14.74;100.00;101221.03;5002557;28;20029;-66
2021/09/14 01:05:57;;;;;;;1.40;0.77;;;;;;;14.65;100.00;101218.63;5015212;28;20037;-66
2021/09/14 01:08:23;;;;;;;0.70;0.70;;;;;;;14.74;100.00;101215.63;4993139;28;20030;-66
2021/09/14 01:10:50;;;;;;;2.00;1.10;;;;;;;14.75;100.00;101209.81;5009739;28;20033;-66
2021/09/14 01:13:15;;;;;;;0.95;0.65;;;;;;;14.82;100.00;101211.84;5020999;28;20028;-65
2021/09/14 01:15:40;;;;;;;1.00;0.68;;;;;;;14.84;100.00;101204.13;5004438;28;20048;-66
2021/09/14 01:18:06;;;;;;;1.75;1.00;;;;;;;14.84;100.00;101206.84;5019496;28;20029;-66
2021/09/14 01:20:32;;;;;;;4.13;0.60;;;;;;;14.73;100.00;101206.69;5023161;28;20065;-66
2021/09/14 01:22:57;;;;;;;1.25;0.93;;;;;;;14.65;100.00;101207.00;4992021;28;20099;-66
2021/09/14 01:25:25;;;;;;;3.03;0.90;;;;;;;14.62;100.00;101211.22;4980390;28;20517;-66
2021/09/14 01:28:00;;;;;;;;;;;;;;;14.52;100.00;101211.09;5018611;28;20053;-66
2021/09/14 01:30:30;;;;;;;1.55;0.70;;;;;;;14.59;100.00;101211.97;5013181;28;19924;-65
2021/09/14 01:32:56;;;;;;;0.77;0.77;;;;;;;14.53;100.00;101213.41;5013047;28;20054;-66
2021/09/14 01:35:28;;;;;;;2.08;0.80;;;;;;;14.63;100.00;101214.72;4997979;28;20037;-65
2021/09/14 01:37:57;;;;;;;1.00;0.68;;;;;;;14.58;100.00;101209.59;4998282;28;20037;-66
2021/09/14 01:40:25;;;;;;;1.17;0.75;;;;;;;14.61;100.00;101215.06;4991957;28;20418;-66
2021/09/14 01:42:54;;;;;;;3.42;1.20;;;;;;;14.61;100.00;101211.59;4982342;28;20088;-66
2021/09/14 01:45:21;;;;;;;1.45;0.90;;;;;;;14.63;100.00;101212.00;5005705;28;20491;-66
2021/09/14 01:47:47;;;;;;;1.38;0.85;;;;;;;14.55;100.00;101204.91;5002400;28;20030;-66
2021/09/14 01:50:15;;;;;;;1.50;0.82;;;;;;;14.50;100.00;101207.97;5006040;28;20037;-65
2021/09/14 01:52:41;;;;;;;4.15;0.63;;;;;;;14.62;100.00;101202.28;4985794;28;20109;-66
2021/09/14 01:55:10;;;;;;;0.80;0.80;;;;;;;14.66;100.00;101209.31;5008771;28;20030;-66
2021/09/14 01:57:38;;;;;;;2.08;0.85;;;;;;;14.64;100.00;101210.84;5002261;28;20065;-66
2021/09/14 02:00:09;;;;;;;1.60;1.50;;;;;;;14.55;100.00;101215.75;4991099;28;20041;-66
2021/09/14 02:05:16;;;;;;;5.32;1.02;;;;;;;14.51;100.00;101199.44;5001608;28;20042;-66
2021/09/14 02:07:59;;;;;;;1.77;0.90;;;;;;;14.46;100.00;101205.97;5008969;28;20045;-66
2021/09/14 02:40:52;;;;;;;1.13;0.77;;;;;;;14.54;100.00;101196.00;5013584;28;20030;-66
2021/09/14 02:59:38;;;;;;;1.15;0.68;;;;;;;14.77;100.00;101191.25;4990952;28;20029;-66
2021/09/14 03:02:05;;;;;;;4.05;0.68;;;;;;;14.82;100.00;101188.22;5008170;28;20121;-66
2021/09/14 03:04:32;;;;;;;4.72;1.45;;;;;;;14.83;100.00;101191.69;5012105;28;20044;-66
2021/09/14 03:06:59;;;;;;;1.25;0.80;;;;;;;14.82;100.00;101184.72;4994565;28;20040;-66
2021/09/14 03:09:30;;;;;;;0.70;0.60;;;;;;;14.85;100.00;101181.25;4990766;28;20084;-66
2021/09/14 03:11:55;;;;;;;0.55;0.55;;;;;;;14.82;100.00;101182.00;5015193;28;20038;-66
2021/09/14 03:14:22;;;;;;;1.00;0.52;;;;;;;14.90;100.00;101183.66;4997408;28;20030;-66
2021/09/14 03:16:47;;;;;;;1.42;0.90;;;;;;;14.95;100.00;101186.03;4994994;28;20623;-66
2021/09/14 03:19:13;;;;;;;0.98;0.70;;;;;;;14.88;100.00;101188.66;5007219;28;20092;-66
2021/09/14 03:21:39;;;;;;;1.27;0.70;;;;;;;14.89;100.00;101182.88;5011240;28;20402;-66
2021/09/14 03:24:07;;;;;;;0.57;0.55;;;;;;;14.91;100.00;101182.50;4997722;28;20033;-66
2021/09/14 03:26:33;;;;;;;1.00;0.70;;;;;;;14.82;100.00;101182.81;5002321;28;20389;-66
2021/09/14 03:28:59;;;;;;;0.82;0.55;;;;;;;14.90;100.00;101184.44;5012560;28;20454;-66
2021/09/14 03:31:28;;;;;;;2.35;0.85;;;;;;;14.94;100.00;101182.53;4989503;28;20032;-66
2021/09/14 03:33:56;;;;;;;0.82;0.63;;;;;;;14.99;100.00;101181.44;5021111;28;20021;-65
2021/09/14 03:36:22;;;;;;;1.67;1.02;;;;;;;15.01;100.00;101181.84;4994534;28;20041;-66
2021/09/14 03:38:49;;;;;;;1.48;0.90;;;;;;;15.00;100.00;101180.28;4990116;28;20030;-66
2021/09/14 03:41:15;;;;;;;0.98;0.60;;;;;;;14.86;100.00;101175.50;4991331;28;20049;-66
2021/09/14 03:43:42;;;;;;;3.63;0.80;;;;;;;14.95;100.00;101178.69;5007664;28;20118;-66
2021/09/14 03:46:08;;;;;;;1.80;0.52;;;;;;;14.96;100.00;101185.66;4976961;28;20549;-66
2021/09/14 03:48:34;;;;;;;1.95;0.68;;;;;;;14.97;100.00;101176.38;5009697;28;20049;-65
2021/09/14 03:51:00;;;;;;;0.73;0.60;;;;;;;15.02;100.00;101178.75;5009484;28;20491;-66
2021/09/14 03:53:27;;;;;;;0.70;0.60;;;;;;;15.07;100.00;101174.94;4996355;28;20036;-66
2021/09/14 03:55:53;;;;;;;2.25;0.90;;;;;;;15.03;100.00;101174.09;5012047;28;20026;-66
2021/09/14 03:58:18;;;;;;;2.20;0.88;;;;;;;15.07;100.00;101174.94;5010859;28;20025;-66
2021/09/14 04:00:51;;;;;;;1.10;0.75;;;;;;;15.10;100.00;101180.38;5006485;28;20036;-66
2021/09/14 04:06:38;;;;;;;1.48;0.85;;;;;;;15.05;100.00;101171.81;4990175;28;20038;-66
2021/09/14 04:09:04;;;;;;;2.75;0.90;;;;;;;15.07;100.00;101175.72;4986261;28;20343;-66
2021/09/14 04:11:35;;;;;;;;;;;;;;;14.98;100.00;101177.94;4988025;28;20022;-66
2021/09/14 04:14:01;;;;;;;3.08;0.85;;;;;;;15.08;100.00;101184.63;5017421;28;19914;-66
2021/09/14 04:16:26;;;;;;;1.42;0.80;;;;;;;15.10;100.00;101185.81;5004867;28;20121;-65
2021/09/14 04:18:52;;;;;;;1.70;0.73;;;;;;;15.07;100.00;101183.06;4995793;28;20056;-66
2021/09/14 04:21:18;;;;;;;1.13;0.75;;;;;;;15.10;100.00;101183.09;5004933;28;20402;-66
2021/09/14 04:23:43;;;;;;;1.85;1.10;;;;;;;15.09;100.00;101186.97;5014006;28;20030;-66
2021/09/14 04:26:09;;;;;;;3.28;1.17;;;;;;;15.14;100.00;101189.34;4993678;28;20032;-66
2021/09/14 04:28:35;;;;;;;0.90;0.73;;;;;;;15.15;100.00;101187.41;4986717;28;20022;-66
2021/09/14 04:31:01;;;;;;;4.65;0.98;;;;;;;15.18;100.00;101187.44;5007057;28;20037;-66
2021/09/14 04:33:29;;;;;;;1.98;0.95;;;;;;;15.22;100.00;101184.78;5001033;28;20708;-66
2021/09/14 04:35:55;;;;;;;1.48;0.90;;;;;;;15.22;100.00;101185.56;5003411;28;20092;-66
2021/09/14 04:38:26;;;;;;;3.45;0.90;;;;;;;15.18;100.00;101192.88;5002211;28;20482;-66
2021/09/14 04:40:52;;;;;;;1.40;0.82;;;;;;;15.10;100.00;101195.88;4991735;28;20052;-66
2021/09/14 04:43:18;;;;;;;1.23;0.85;;;;;;;15.19;100.00;101189.00;5009439;28;20038;-66
2021/09/14 04:45:44;;;;;;;2.15;0.95;;;;;;;15.20;100.00;101185.16;5001556;28;20107;-65
2021/09/14 04:48:10;;;;;;;3.72;1.20;;;;;;;15.23;100.00;101186.34;5015863;28;20025;-66
2021/09/14 04:50:37;;;;;;;3.50;0.90;;;;;;;15.23;100.00;101187.09;5030676;22;20643;-66
2021/09/14 04:53:05;;;;;;;1.10;0.88;;;;;;;15.24;100.00;101175.09;4992445;28;20485;-66
2021/09/14 04:55:33;;;;;;;1.23;1.00;;;;;;;15.23;100.00;101178.97;5011539;28;20579;-66
2021/09/14 04:57:59;;;;;;;1.42;1.00;;;;;;;15.23;100.00;101178.97;5015306;28;20181;-66
2021/09/14 05:00:25;;;;;;;1.85;0.98;;;;;;;15.22;100.00;101172.00;5002532;28;20026;-66
2021/09/14 05:02:53;;;;;;;2.70;0.88;;;;;;;15.25;100.00;101173.19;4980390;28;20038;-66
2021/09/14 05:05:19;;;;;;;3.35;1.10;;;;;;;15.35;100.00;101177.91;5029117;28;20103;-66
2021/09/14 05:07:45;;;;;;;2.00;0.88;;;;;;;15.26;100.00;101172.81;5010555;28;20048;-66
2021/09/14 05:10:11;;;;;;;1.58;0.88;;;;;;;15.28;100.00;101170.50;5021752;28;20030;-66
2021/09/14 05:12:41;;;;;;;4.50;0.93;;;;;;;15.26;100.00;101170.09;5006266;28;20040;-66
2021/09/14 05:15:08;;;;;;;4.05;1.05;;;;;;;15.32;100.00;101170.53;5011396;28;20030;-66
2021/09/14 05:17:51;;;;;;;4.45;1.15;;;;;;;15.29;100.00;101171.28;5022064;28;20060;-66
2021/09/14 05:20:27;;;;;;;9.18;2.72;;;;;;;15.26;100.00;101164.66;5005575;28;20029;-66
2021/09/14 05:23:02;;;;;;;2.85;1.13;;;;;;;15.31;100.00;101172.44;5025246;28;20056;-66
2021/09/14 05:25:28;;;;;;;1.38;0.90;;;;;;;15.32;100.00;101165.88;5007873;28;20037;-66
2021/09/14 05:27:53;;;;;;;2.15;1.25;;;;;;;15.33;100.00;101158.50;5025714;28;20180;-66
2021/09/14 05:30:20;;;;;;;5.18;1.35;;;;;;;15.36;100.00;101149.63;5007575;28;20033;-66
2021/09/14 05:32:45;;;;;;;1.85;1.30;;;;;;;15.39;100.00;101157.00;5007923;28;20504;-66
2021/09/14 05:35:11;;;;;;;3.60;1.38;;;;;;;15.38;100.00;101152.75;5001665;28;20026;-66
2021/09/14 05:37:37;;;;;;;1.85;1.23;;;;;;;15.41;100.00;101152.00;5015248;28;20045;-66
2021/09/14 05:40:03;;;;;;;4.65;1.25;;;;;;;15.41;100.00;101153.94;4997329;28;20026;-66
2021/09/14 05:42:34;;;;;;;;;;;;;;;15.32;100.00;101156.97;5006774;28;20493;-66
2021/09/14 05:45:00;;;;;;;2.40;1.08;;;;;;;15.39;100.00;101152.38;5005190;28;19913;-66
2021/09/14 05:47:26;;;;;;;4.22;1.10;;;;;;;15.46;100.00;101145.47;5009782;28;20041;-66
2021/09/14 05:49:52;;;;;;;3.72;1.10;;;;;;;15.50;100.00;101152.50;5007654;28;20445;-66
2021/09/14 05:52:17;;;;;;;4.75;1.30;;;;;;;15.50;100.00;101141.66;5007029;28;20033;-66
2021/09/14 05:54:45;;;;;;;2.30;1.80;;;;;;;15.60;100.00;101148.31;5005407;28;20029;-66
2021/09/14 05:57:31;;;;;;;2.17;1.20;;;;;;;15.60;100.00;101153.75;5013591;28;20026;-66
2021/09/14 05:59:57;;;;;;;3.25;1.35;;;;;;;15.63;100.00;101147.56;4935418;28;20098;-66
2021/09/14 06:02:22;;;;;;;2.40;1.65;;;;;;;15.68;100.00;101152.66;4952232;28;20043;-66
2021/09/14 06:04:50;;;;;;;3.85;1.70;;;;;;;15.64;100.00;101152.59;4937775;28;20047;-66
2021/09/14 06:07:16;;;;;;;3.60;1.30;;;;;;;15.65;100.00;101156.88;4957394;28;21144;-66
2021/09/14 06:09:44;;;;;;;2.88;1.40;;;;;;;15.72;100.00;101162.38;4940371;28;20041;-66
2021/09/14 06:12:10;;;;;;;3.30;1.40;;;;;;;15.71;100.00;101160.03;4939715;29;20055;-66
2021/09/14 06:14:36;;;;;;;2.75;1.48;;;;;;;15.75;100.00;101153.47;4950944;29;20031;-66
2021/09/14 06:17:02;;;;;;;1.98;1.13;;;;;;;15.78;100.00;101154.63;4933810;28;20043;-66
2021/09/14 06:19:30;;;;;;;2.25;1.30;;;;;;;15.82;100.00;101158.94;4952265;28;20031;-66
2021/09/14 06:21:55;;;;;;;2.05;1.45;;;;;;;15.82;100.00;101161.66;4939360;28;20046;-66
2021/09/14 06:24:21;;;;;;;2.30;1.35;;;;;;;15.84;100.00;101158.56;4941660;28;20031;-66
2021/09/14 06:26:48;;;;;;;2.58;1.27;;;;;;;15.87;100.00;101168.69;4937907;28;20035;-66
2021/09/14 06:29:16;;;;;;;2.33;1.50;;;;;;;15.90;100.00;101163.28;4954375;28;20568;-66
2021/09/14 06:31:42;;;;;;;2.45;1.10;;;;;;;15.90;100.00;101163.28;4935376;29;20054;-66
2021/09/14 06:34:27;;;;;;;3.15;1.10;;;;;;;16.01;100.00;101164.13;4952315;28;20451;-66
2021/09/14 06:36:53;;;;;;;2.22;1.08;;;;;;;16.15;100.00;101169.66;4981037;28;20042;-66
2021/09/14 06:39:19;;;;;;;3.40;1.35;;;;;;;16.16;100.00;101167.72;5031397;28;20065;-66
2021/09/14 06:41:44;;;;;;;5.70;1.60;;;;;;;16.28;100.00;101168.16;5016989;28;20033;-66
2021/09/14 06:44:10;;;;;;;3.50;1.38;;;;;;;16.26;100.00;101165.03;5019198;28;20128;-66
2021/09/14 06:46:45;;;;;;;3.30;1.45;;;;;;;16.36;100.00;101168.19;5014046;28;20061;-66
2021/09/14 06:49:13;;;;;;;2.30;1.40;;;;;;;16.37;100.00;101172.50;5007458;28;20029;-66
2021/09/14 06:51:38;;;;;;;5.03;1.30;;;;;;;16.38;100.00;101169.38;5030227;28;20401;-66
2021/09/14 06:54:04;;;;;;;3.67;1.20;;;;;;;16.48;100.00;101165.16;5032098;28;20127;-66
2021/09/14 06:56:30;;;;;;;2.78;1.55;;;;;;;16.52;100.00;101174.94;5032183;28;20120;-66
2021/09/14 06:58:55;;;;;;;2.65;1.40;;;;;;;16.54;100.00;101174.53;5025875;28;20032;-66
2021/09/14 07:01:22;;;;;;;5.45;1.45;;;;;;;16.59;100.00;101166.03;5029572;28;20045;-66
2021/09/14 07:03:48;;;;;;;4.32;1.38;;;;;;;16.61;100.00;101164.47;5024355;28;20080;-66
2021/09/14 07:06:15;;;;;;;1.98;1.25;;;;;;;16.70;100.00;101172.28;5018382;28;20030;-66
2021/09/14 07:08:40;;;;;;;2.40;1.60;;;;;;;16.76;100.00;101168.03;5030085;28;20040;-66
2021/09/14 07:11:06;;;;;;;2.40;1.08;;;;;;;16.80;100.00;101166.88;5025498;28;20393;-67
2021/09/14 07:13:32;;;;;;;2.85;1.27;;;;;;;16.84;100.00;101173.09;5027793;28;20749;-66
2021/09/14 07:15:57;;;;;;;1.83;1.20;;;;;;;16.93;100.00;101176.25;5028559;28;20639;-66
2021/09/14 07:18:23;;;;;;;2.17;1.10;;;;;;;17.02;100.00;101173.16;5030895;28;20042;-66
2021/09/14 07:20:51;;;;;;;2.67;1.05;;;;;;;17.05;100.00;101169.66;5026422;28;20083;-66
2021/09/14 07:23:16;;;;;;;2.88;1.20;;;;;;;17.19;100.00;101166.97;5028148;28;20563;-66
2021/09/14 07:25:42;;;;;;;3.13;2.10;;;;;;;17.51;100.00;101169.75;5028831;28;20049;-66
2021/09/14 07:28:09;;;;;;;1.52;1.15;;;;;;;17.73;100.00;101163.91;5021415;28;20640;-66
2021/09/14 07:30:36;;;;;;;2.80;1.25;;;;;;;17.87;100.00;101163.13;5028091;28;20048;-66
2021/09/14 07:33:02;;;;;;;3.17;1.00;;;;;;;17.95;100.00;101165.44;5026423;28;20033;-66
2021/09/14 07:35:30;;;;;;;1.65;1.00;;;;;;;18.14;100.00;101158.78;5027992;28;20418;-66
2021/09/14 07:37:56;;;;;;;3.50;1.33;;;;;;;18.17;100.00;101162.69;5025723;28;20516;-66
2021/09/14 07:40:23;;;;;;;2.53;1.05;;;;;;;18.37;100.00;101158.34;5028594;28;20030;-66
2021/09/14 07:42:48;;;;;;;1.52;0.95;;;;;;;18.48;100.00;101153.66;5022439;28;20026;-67
2021/09/14 07:45:14;;;;;;;3.05;1.00;;;;;;;18.68;99.85;101154.72;5029375;28;20032;-66
2021/09/14 07:47:39;;;;;;;4.45;1.10;;;;;;;18.89;99.50;101149.19;5029042;28;20033;-66
2021/09/14 07:50:05;;;;;;;2.47;1.10;;;;;;;19.03;98.60;101146.34;5027999;28;20505;-67
2021/09/14 07:52:31;;;;;;;1.30;1.10;;;;;;;19.15;96.80;101142.34;5025501;28;20028;-67
2021/09/14 07:54:56;;;;;;;2.15;1.20;;;;;;;19.23;95.74;101150.13;5029024;28;20429;-66
2021/09/14 07:57:22;;;;;;;4.00;1.70;;;;;;;19.39;94.72;101147.69;5023777;28;20083;-66
2021/09/14 07:59:47;;;;;;;1.80;1.13;;;;;;;19.48;94.14;101145.28;5011076;28;20108;-66
2021/09/14 08:02:13;;;;;;;2.72;1.20;;;;;;;19.64;94.09;101142.00;5026287;28;20045;-67
2021/09/14 08:04:38;;;;;;;1.63;1.13;;;;;;;19.70;92.49;101143.13;5026747;28;20033;-66
2021/09/14 08:07:04;;;;;;;2.58;1.25;;;;;;;19.90;92.30;101154.28;5026216;28;20044;-67
2021/09/14 08:09:30;;;;;;;2.35;1.48;;;;;;;19.97;91.73;101152.25;5027815;28;20052;-66
2021/09/14 08:11:57;;;;;;;3.72;1.30;;;;;;;20.03;91.01;101145.16;5026100;28;20029;-66
2021/09/14 08:14:23;;;;;;;1.45;1.33;;;;;;;19.99;89.77;101146.38;5025916;28;20057;-67
2021/09/14 08:16:48;;;;;;;3.58;1.40;;;;;;;20.06;89.83;101149.81;5026675;28;20057;-66
2021/09/14 08:19:14;;;;;;;1.75;1.00;;;;;;;20.20;89.01;101146.94;5011801;28;20117;-66
2021/09/14 08:21:40;;;;;;;2.33;1.13;;;;;;;20.21;89.32;101153.97;5003846;28;20037;-66
2021/09/14 08:24:09;;;;;;;1.48;0.90;;;;;;;20.41;89.79;101151.41;5008629;28;20041;-66
2021/09/14 08:26:38;;;;;;;2.33;1.42;;;;;;;20.52;88.96;101154.78;5025252;28;20041;-67
2021/09/14 08:29:04;;;;;;;1.92;1.10;;;;;;;20.62;88.03;101156.59;5023104;28;20029;-66
2021/09/14 08:31:30;;;;;;;3.17;1.27;;;;;;;20.67;86.03;101169.84;5026110;28;20642;-66
2021/09/14 08:33:56;;;;;;;2.00;1.10;;;;;;;20.75;86.50;101143.91;5025658;28;20609;-66
2021/09/14 08:36:23;;;;;;;1.90;0.80;;;;;;;20.86;85.28;101152.00;5007695;28;20393;-66
2021/09/14 08:38:48;;;;;;;2.83;1.00;;;;;;;20.97;82.63;101161.63;5022606;28;20033;-66
2021/09/14 08:41:16;;;;;;;1.02;0.70;;;;;;;21.02;82.16;101150.22;5029124;28;20080;-66
2021/09/14 08:43:45;;;;;;;2.38;0.73;;;;;;;21.18;80.07;101157.81;5024876;28;20081;-66
2021/09/14 08:46:12;;;;;;;1.20;0.85;;;;;;;21.16;79.22;101157.44;5026662;28;20091;-67
2021/09/14 08:48:38;;;;;;;0.70;0.50;;;;;;;21.30;77.88;101160.75;5010353;28;20021;-67
2021/09/14 08:51:05;;;;;;;1.30;0.60;;;;;;;21.31;77.65;101156.06;5027906;28;20037;-66
2021/09/14 08:53:34;;;;;;;0.60;0.60;;;;;;;21.42;77.85;101157.44;5009639;28;20025;-66
2021/09/14 08:56:04;;;;;;;2.05;0.70;;;;;;;21.53;78.28;101155.31;5029150;28;20045;-66
2021/09/14 08:58:29;;;;;;;0.98;0.63;;;;;;;21.62;76.96;101167.72;5021311;28;20446;-67
2021/09/14 09:00:55;;;;;;;1.17;0.75;;;;;;;21.76;74.48;101162.75;5028783;28;20112;-66
2021/09/14 09:03:30;;;;;;;0.88;0.40;;;;;;;21.79;72.07;101161.13;5028134;28;20367;-66
2021/09/14 09:05:59;;;;;;;1.27;0.82;;;;;;;21.95;72.13;101172.25;5023952;28;20041;-66
2021/09/14 09:08:30;;;;;;;1.05;0.60;;;;;;;22.04;71.73;101166.97;5023788;28;20048;-67
2021/09/14 09:11:05;;;;;;;1.30;0.50;;;;;;;22.03;72.08;101168.16;5027461;28;20075;-67
2021/09/14 09:13:52;;;;;;;0.40;0.40;;;;;;;22.19;71.27;101163.56;5026869;28;20091;-67
2021/09/14 09:16:23;;;;;;;0.98;0.45;;;;;;;22.40;70.25;101156.88;5022624;28;20064;-67
2021/09/14 09:18:54;;;;;;;1.58;0.70;;;;;;;22.53;69.89;101157.75;5026185;28;20111;-67
2021/09/14 09:21:40;;;;;;;0.40;0.40;;;;;;;22.74;69.60;101160.13;5002759;28;20052;-67
2021/09/14 09:24:08;;;;;;;1.15;0.50;;;;;;;22.81;68.87;101156.44;5024479;28;20089;-67
2021/09/14 09:26:37;;;;;;;2.08;0.60;;;;;;;22.83;67.72;101157.56;5014481;28;20099;-67
2021/09/14 09:29:05;;;;;;;2.97;1.27;;;;;;;23.11;67.85;101159.66;5027873;28;20040;-66
2021/09/14 09:31:36;;;;;;;0.90;0.60;;;;;;;23.18;66.90;101155.97;5024689;28;20030;-67
2021/09/14 09:34:06;;;;;;;3.80;0.60;;;;;;;23.27;67.31;101151.44;5027254;28;20116;-66
2021/09/14 09:36:41;;;;;;;4.28;0.77;;;;;;;23.52;66.08;101147.34;5027037;28;20588;-67
2021/09/14 09:39:12;;;;;;;0.65;0.60;;;;;;;23.67;65.58;101151.28;5024748;28;20117;-67
2021/09/14 09:41:40;;;;;;;1.17;0.40;;;;;;;23.67;66.29;101160.31;5030486;28;20037;-66
2021/09/14 09:44:12;;;;;;;0.77;0.55;;;;;;;23.87;64.45;101165.69;5027480;28;20565;-67
2021/09/14 09:46:39;;;;;;;2.10;1.25;;;;;;;24.03;65.90;101160.97;5028345;28;20305;-67
2021/09/14 09:49:07;;;;;;;1.08;0.70;;;;;;;24.29;64.65;101163.81;5028055;28;20037;-67
2021/09/14 09:51:34;;;;;;;1.98;1.02;;;;;;;24.45;65.32;101161.00;5028263;28;20535;-67
2021/09/14 09:54:04;;;;;;;1.15;1.05;;;;;;;24.67;61.34;101165.44;5027570;28;20025;-67
2021/09/14 09:56:31;;;;;;;0.90;0.70;;;;;;;24.55;61.38;101155.16;5003745;28;20034;-67
2021/09/14 09:59:01;;;;;;;1.50;0.73;;;;;;;24.49;61.86;101156.91;5031414;28;20058;-67
2021/09/14 10:01:27;;;;;;;2.70;0.70;;;;;;;24.37;61.01;101152.13;5025668;28;20753;-67
2021/09/14 10:04:04;;;;;;;1.08;0.77;;;;;;;24.49;61.08;101148.66;5031173;28;20091;-67
2021/09/14 10:06:37;;;;;;;0.80;0.60;;;;;;;24.43;60.28;101149.66;5011187;28;20081;-67
2021/09/14 10:09:04;;;;;;;1.17;0.70;;;;;;;24.56;59.95;101144.94;5016200;28;20029;-67
2021/09/14 10:11:30;;;;;;;2.60;0.85;;;;;;;24.59;59.17;101147.56;5031555;28;20025;-67
2021/09/14 10:14:06;;;;;;;0.75;0.52;;;;;;;24.67;60.71;101139.88;5026005;28;20032;-67
2021/09/14 10:16:35;;;;;;;0.63;0.60;;;;;;;24.93;61.71;101139.47;5025630;28;20033;-67
2021/09/14 10:19:29;;;;;;;1.00;0.70;;;;;;;24.91;59.01;101136.38;5021734;28;20112;-67
2021/09/14 10:22:04;;;;;;;1.92;0.70;;;;;;;25.01;60.00;101140.00;5009807;28;20080;-67
2021/09/14 10:24:31;;;;;;;2.47;0.75;;;;;;;25.05;60.20;101133.19;5027611;28;20056;-67
2021/09/14 10:27:11;;;;;;;0.93;0.68;;;;;;;25.18;59.44;101122.16;5032326;28;20029;-67
2021/09/14 10:29:38;;;;;;;1.27;0.70;;;;;;;25.40;59.96;101133.28;5028730;28;20034;-67
2021/09/14 10:32:12;;;;;;;4.20;0.60;;;;;;;25.41;59.25;101127.34;5026684;28;20044;-67
2021/09/14 10:34:50;;;;;;;0.77;0.68;;;;;;;25.52;60.56;101129.72;5031479;28;20516;-66
2021/09/14 10:37:16;;;;;;;2.75;0.90;;;;;;;25.47;57.16;101120.03;5022964;28;20078;-67
2021/09/14 10:39:44;;;;;;;1.00;0.60;;;;;;;25.31;55.76;101122.91;5029484;28;20045;-67
2021/09/14 10:42:21;;;;;;;1.52;0.80;;;;;;;25.51;57.35;101117.91;5022126;28;20032;-67
2021/09/14 10:44:49;;;;;;;0.98;0.85;;;;;;;25.76;57.78;101125.38;5028725;28;20041;-66
2021/09/14 10:47:18;;;;;;;2.20;1.10;;;;;;;25.97;58.22;101123.84;5023140;28;20042;-67
2021/09/14 10:49:57;;;;;;;0.90;0.80;;;;;;;25.94;57.37;101125.50;5023308;28;20398;-67
2021/09/14 10:52:34;;;;;;;2.05;0.90;;;;;;;25.59;57.28;101113.69;5032034;22;20065;-68
2021/09/14 10:55:07;;;;;;;1.30;0.80;;;;;;;25.42;58.53;101125.31;5030343;28;20060;-67
2021/09/14 10:57:42;;;;;;;1.00;0.85;;;;;;;25.57;58.97;101124.41;5023777;28;20045;-69
2021/09/14 11:00:15;;;;;;;1.67;1.00;;;;;;;25.54;57.70;101124.53;5026918;28;20056;-67
2021/09/14 11:02:41;;;;;;;1.15;0.70;;;;;;;25.60;57.57;101115.25;5010505;28;20054;-67
2021/09/14 11:05:08;;;;;;;1.65;1.15;;;;;;;25.34;59.76;101116.50;5004233;28;20034;-68
2021/09/14 11:07:34;;;;;;;1.40;1.02;;;;;;;25.05;59.37;101111.13;4991405;28;20105;-67
2021/09/14 11:10:07;;;;;;;1.15;0.93;;;;;;;24.90;61.47;101112.81;4999031;28;20050;-67
2021/09/14 11:12:33;;;;;;;1.30;0.95;;;;;;;24.99;61.09;101110.13;5008872;28;20034;-68
2021/09/14 11:15:00;;;;;;;0.63;0.60;;;;;;;25.31;60.87;101114.63;4998039;28;20037;-66
2021/09/14 11:17:33;;;;;;;2.30;1.00;;;;;;;25.42;60.09;101109.56;5000630;28;20065;-67
2021/09/14 11:20:14;;;;;;;2.40;0.90;;;;;;;25.62;60.72;101120.31;5010613;28;20122;-66
2021/09/14 11:22:41;;;;;;;1.25;0.88;;;;;;;25.92;59.89;101109.38;4998877;28;20034;-66
2021/09/14 11:25:15;;;;;;;1.98;1.00;;;;;;;26.04;57.97;101116.06;4990200;28;20038;-67
2021/09/14 11:28:07;;;;;;;1.25;1.00;;;;;;;25.60;59.59;101108.97;5006029;28;20441;-66
2021/09/14 11:30:35;;;;;;;2.05;1.17;;;;;;;25.58;59.90;101103.91;5012138;28;20065;-66
2021/09/14 11:33:02;;;;;;;1.17;0.95;;;;;;;25.58;60.45;101105.88;4995120;28;20081;-66
2021/09/14 11:35:29;;;;;;;1.10;0.93;;;;;;;25.52;61.47;101107.66;4995730;28;20042;-67
2021/09/14 11:37:58;;;;;;;1.15;0.85;;;;;;;25.42;61.37;101098.53;4996233;28;20092;-67
2021/09/14 11:40:24;;;;;;;1.40;1.20;;;;;;;25.14;60.93;101101.41;4994223;28;20061;-67
2021/09/14 11:42:54;;;;;;;2.97;0.90;;;;;;;24.99;61.32;101096.34;5012097;28;20050;-67
2021/09/14 11:45:25;;;;;;;1.70;1.02;;;;;;;24.88;62.21;101104.19;4993174;28;20463;-67
2021/09/14 11:47:55;;;;;;;1.00;0.80;;;;;;;24.91;62.10;101094.28;5014872;28;20037;-67
2021/09/14 11:50:27;;;;;;;1.83;1.02;;;;;;;24.95;62.89;101090.19;5007671;28;20037;-67
2021/09/14 11:53:21;;;;;;;1.70;0.98;;;;;;;24.84;62.63;101084.25;5009812;28;20026;-67
2021/09/14 11:55:50;;;;;;;1.80;0.82;;;;;;;24.74;62.44;101090.84;5003423;28;20046;-66
2021/09/14 11:58:29;;;;;;;2.05;0.88;;;;;;;24.75;63.50;101094.38;5009546;28;20478;-66
2021/09/14 12:00:57;;;;;;;1.10;1.00;;;;;;;24.67;65.01;101095.78;4993351;28;20125;-66
2021/09/14 12:03:44;;;;;;;1.35;1.10;;;;;;;24.63;65.13;101093.13;4997528;28;20629;-67
2021/09/14 12:06:10;;;;;;;1.60;0.90;;;;;;;24.62;66.58;101088.81;4999514;28;20052;-67
2021/09/14 12:08:43;;;;;;;1.98;1.23;;;;;;;24.60;64.75;101085.00;5001562;28;20128;-67
2021/09/14 12:11:10;;;;;;;1.45;1.00;;;;;;;24.60;64.72;101085.75;4994246;28;20046;-66
2021/09/14 12:13:45;;;;;;;3.90;1.20;;;;;;;24.78;65.06;101076.97;5003931;28;20108;-66
2021/09/14 12:16:17;;;;;;;3.42;1.00;;;;;;;24.85;65.21;101072.00;4983256;28;20144;-67
2021/09/14 12:18:43;;;;;;;1.60;1.20;;;;;;;24.73;65.31;101072.78;4996761;28;20034;-67